sensor_id;sensor_type;location;lat;lon;timestamp;P1;durP1;ratioP1;P2;durP2;ratioP2
15496;SDS011;7850;52.204;5.942;2023-05-08T00:03:33;0.20;;;0.20;;
15496;SDS011;7850;52.204;5.942;2023-05-08T00:03:33;0.20;;;0.20;;
15496;SDS011;7850;52.204;5.942;2023-05-08T00:03:33;0.20;;;0.20;;
15496;SDS011;7850;52.204;5.942;2023-05-08T00:03:33;0.20;;;0.20;;
15496;SDS011;7850;52.204;5.942;2023-05-08T00:04:22;0.34;;;0.34;;
15496;SDS011;7850;52.204;5.942;2023-05-08T00:05:22;0.26;;;0.26;;
15496;SDS011;7850;52.204;5.942;2023-05-08T00:06:22;0.24;;;0.24;;
15496;SDS011;7850;52.204;5.942;2023-05-08T00:07:22;0.30;;;0.30;;
15496;SDS011;7850;52.204;5.942;2023-05-08T00:08:22;0.20;;;0.20;;
15496;SDS011;7850;52.204;5.942;2023-05-08T00:09:23;0.28;;;0.28;;
15496;SDS011;7850;52.204;5.942;2023-05-08T00:10:23;0.20;;;0.20;;
15496;SDS011;7850;52.204;5.942;2023-05-08T00:11:23;0.24;;;0.24;;
15496;SDS011;7850;52.204;5.942;2023-05-08T00:12:23;0.21;;;0.21;;
15496;SDS011;7850;52.204;5.942;2023-05-08T00:13:23;0.29;;;0.29;;
15496;SDS011;7850;52.204;5.942;2023-05-08T00:14:23;0.20;;;0.20;;
15496;SDS011;7850;52.204;5.942;2023-05-08T00:15:23;0.20;;;0.20;;
15496;SDS011;7850;52.204;5.942;2023-05-08T00:16:23;0.30;;;0.30;;
15496;SDS011;7850;52.204;5.942;2023-05-08T00:17:23;0.28;;;0.28;;
15496;SDS011;7850;52.204;5.942;2023-05-08T00:18:23;0.28;;;0.28;;
15496;SDS011;7850;52.204;5.942;2023-05-08T00:19:23;0.29;;;0.29;;
15496;SDS011;7850;52.204;5.942;2023-05-08T00:20:23;0.20;;;0.20;;
15496;SDS011;7850;52.204;5.942;2023-05-08T00:21:23;0.20;;;0.20;;
15496;SDS011;7850;52.204;5.942;2023-05-08T00:22:23;0.30;;;0.30;;
15496;SDS011;7850;52.204;5.942;2023-05-08T00:23:23;0.28;;;0.28;;
15496;SDS011;7850;52.204;5.942;2023-05-08T00:24:23;0.20;;;0.20;;
15496;SDS011;7850;52.204;5.942;2023-05-08T00:25:24;0.28;;;0.28;;
15496;SDS011;7850;52.204;5.942;2023-05-08T00:26:24;0.20;;;0.20;;
15496;SDS011;7850;52.204;5.942;2023-05-08T00:27:24;0.21;;;0.21;;
15496;SDS011;7850;52.204;5.942;2023-05-08T00:28:24;0.20;;;0.20;;
15496;SDS011;7850;52.204;5.942;2023-05-08T00:29:24;0.27;;;0.27;;
15496;SDS011;7850;52.204;5.942;2023-05-08T00:30:24;0.23;;;0.23;;
15496;SDS011;7850;52.204;5.942;2023-05-08T00:31:24;0.20;;;0.20;;
15496;SDS011;7850;52.204;5.942;2023-05-08T00:32:24;0.20;;;0.20;;
15496;SDS011;7850;52.204;5.942;2023-05-08T00:33:24;0.23;;;0.23;;
15496;SDS011;7850;52.204;5.942;2023-05-08T00:34:24;0.38;;;0.38;;
15496;SDS011;7850;52.204;5.942;2023-05-08T00:35:24;0.20;;;0.20;;
15496;SDS011;7850;52.204;5.942;2023-05-08T00:36:24;0.32;;;0.32;;
15496;SDS011;7850;52.204;5.942;2023-05-08T00:37:24;0.30;;;0.30;;
15496;SDS011;7850;52.204;5.942;2023-05-08T00:38:24;0.37;;;0.37;;
15496;SDS011;7850;52.204;5.942;2023-05-08T00:39:24;0.28;;;0.28;;
15496;SDS011;7850;52.204;5.942;2023-05-08T00:40:25;0.37;;;0.37;;
15496;SDS011;7850;52.204;5.942;2023-05-08T00:41:25;0.31;;;0.31;;
15496;SDS011;7850;52.204;5.942;2023-05-08T00:42:25;0.28;;;0.28;;
15496;SDS011;7850;52.204;5.942;2023-05-08T00:43:25;0.30;;;0.30;;
15496;SDS011;7850;52.204;5.942;2023-05-08T00:44:25;0.29;;;0.29;;
15496;SDS011;7850;52.204;5.942;2023-05-08T00:45:25;0.21;;;0.21;;
15496;SDS011;7850;52.204;5.942;2023-05-08T00:46:25;0.30;;;0.30;;
15496;SDS011;7850;52.204;5.942;2023-05-08T00:47:25;0.40;;;0.40;;
15496;SDS011;7850;52.204;5.942;2023-05-08T00:48:26;0.27;;;0.27;;
15496;SDS011;7850;52.204;5.942;2023-05-08T00:49:25;0.26;;;0.26;;
15496;SDS011;7850;52.204;5.942;2023-05-08T00:50:25;0.20;;;0.20;;
15496;SDS011;7850;52.204;5.942;2023-05-08T00:51:25;0.37;;;0.37;;
15496;SDS011;7850;52.204;5.942;2023-05-08T00:52:25;0.30;;;0.30;;
15496;SDS011;7850;52.204;5.942;2023-05-08T00:53:25;0.21;;;0.21;;
15496;SDS011;7850;52.204;5.942;2023-05-08T00:54:25;0.20;;;0.20;;
15496;SDS011;7850;52.204;5.942;2023-05-08T00:55:25;0.20;;;0.20;;
15496;SDS011;7850;52.204;5.942;2023-05-08T00:56:25;0.40;;;0.40;;
15496;SDS011;7850;52.204;5.942;2023-05-08T00:57:26;0.30;;;0.30;;
15496;SDS011;7850;52.204;5.942;2023-05-08T00:58:26;0.33;;;0.33;;
15496;SDS011;7850;52.204;5.942;2023-05-08T00:59:26;6.25;;;6.00;;
15496;SDS011;7850;52.204;5.942;2023-05-08T01:00:26;6.51;;;6.25;;
15496;SDS011;7850;52.204;5.942;2023-05-08T01:01:26;5.79;;;5.57;;
15496;SDS011;7850;52.204;5.942;2023-05-08T01:02:26;3.28;;;3.16;;
15496;SDS011;7850;52.204;5.942;2023-05-08T01:03:26;3.90;;;3.78;;
15496;SDS011;7850;52.204;5.942;2023-05-08T01:04:26;2.90;;;2.80;;
15496;SDS011;7850;52.204;5.942;2023-05-08T01:05:26;4.14;;;3.99;;
15496;SDS011;7850;52.204;5.942;2023-05-08T01:06:26;22.80;;;21.66;;
15496;SDS011;7850;52.204;5.942;2023-05-08T01:07:26;24.15;;;22.93;;
15496;SDS011;7850;52.204;5.942;2023-05-08T01:08:26;30.47;;;28.94;;
15496;SDS011;7850;52.204;5.942;2023-05-08T01:09:26;15.92;;;15.12;;
15496;SDS011;7850;52.204;5.942;2023-05-08T01:10:28;17.11;;;16.32;;
15496;SDS011;7850;52.204;5.942;2023-05-08T01:11:27;22.13;;;21.10;;
15496;SDS011;7850;52.204;5.942;2023-05-08T01:12:29;7.38;;;7.08;;
15496;SDS011;7850;52.204;5.942;2023-05-08T01:13:29;6.46;;;6.18;;
15496;SDS011;7850;52.204;5.942;2023-05-08T01:14:28;6.64;;;6.39;;
15496;SDS011;7850;52.204;5.942;2023-05-08T01:15:28;6.33;;;6.05;;
15496;SDS011;7850;52.204;5.942;2023-05-08T01:16:28;15.54;;;14.22;;
15496;SDS011;7850;52.204;5.942;2023-05-08T01:17:29;9.92;;;9.48;;
15496;SDS011;7850;52.204;5.942;2023-05-08T01:18:30;4.80;;;4.63;;
15496;SDS011;7850;52.204;5.942;2023-05-08T01:19:36;9.93;;;9.49;;
15496;SDS011;7850;52.204;5.942;2023-05-08T01:20:31;6.21;;;5.95;;
15496;SDS011;7850;52.204;5.942;2023-05-08T01:21:29;5.31;;;5.11;;
15496;SDS011;7850;52.204;5.942;2023-05-08T01:22:32;15.68;;;14.96;;
15496;SDS011;7850;52.204;5.942;2023-05-08T01:23:34;19.94;;;19.03;;
15496;SDS011;7850;52.204;5.942;2023-05-08T01:24:37;17.62;;;16.82;;
15496;SDS011;7850;52.204;5.942;2023-05-08T01:25:33;15.33;;;14.64;;
15496;SDS011;7850;52.204;5.942;2023-05-08T01:26:41;16.05;;;15.32;;
15496;SDS011;7850;52.204;5.942;2023-05-08T01:27:33;20.74;;;19.79;;
15496;SDS011;7850;52.204;5.942;2023-05-08T01:28:35;12.90;;;12.33;;
15496;SDS011;7850;52.204;5.942;2023-05-08T01:29:32;11.47;;;10.96;;
15496;SDS011;7850;52.204;5.942;2023-05-08T01:30:33;22.56;;;21.51;;
15496;SDS011;7850;52.204;5.942;2023-05-08T01:31:31;18.26;;;17.44;;
15496;SDS011;7850;52.204;5.942;2023-05-08T01:32:28;20.56;;;19.61;;
15496;SDS011;7850;52.204;5.942;2023-05-08T01:33:29;28.32;;;27.00;;
15496;SDS011;7850;52.204;5.942;2023-05-08T01:34:30;19.65;;;18.74;;
15496;SDS011;7850;52.204;5.942;2023-05-08T01:35:29;15.36;;;14.66;;
15496;SDS011;7850;52.204;5.942;2023-05-08T01:36:29;28.82;;;27.48;;
15496;SDS011;7850;52.204;5.942;2023-05-08T01:37:29;31.31;;;29.84;;
15496;SDS011;7850;52.204;5.942;2023-05-08T01:38:29;22.77;;;21.71;;
15496;SDS011;7850;52.204;5.942;2023-05-08T01:39:31;20.14;;;19.22;;
15496;SDS011;7850;52.204;5.942;2023-05-08T01:40:31;16.80;;;16.05;;
15496;SDS011;7850;52.204;5.942;2023-05-08T01:41:28;17.87;;;17.06;;
15496;SDS011;7850;52.204;5.942;2023-05-08T01:42:31;1.90;;;1.90;;
15496;SDS011;7850;52.204;5.942;2023-05-08T01:43:29;1.53;;;1.53;;
15496;SDS011;7850;52.204;5.942;2023-05-08T01:44:30;1.83;;;1.83;;
15496;SDS011;7850;52.204;5.942;2023-05-08T01:45:30;1.40;;;1.40;;
15496;SDS011;7850;52.204;5.942;2023-05-08T01:46:29;6.35;;;6.09;;
15496;SDS011;7850;52.204;5.942;2023-05-08T01:47:29;3.99;;;3.83;;
15496;SDS011;7850;52.204;5.942;2023-05-08T01:48:29;7.42;;;7.12;;
15496;SDS011;7850;52.204;5.942;2023-05-08T01:49:31;8.19;;;7.85;;
15496;SDS011;7850;52.204;5.942;2023-05-08T01:50:30;5.12;;;4.93;;
15496;SDS011;7850;52.204;5.942;2023-05-08T01:51:30;0.85;;;0.85;;
15496;SDS011;7850;52.204;5.942;2023-05-08T01:52:30;0.43;;;0.43;;
15496;SDS011;7850;52.204;5.942;2023-05-08T01:53:29;0.40;;;0.40;;
15496;SDS011;7850;52.204;5.942;2023-05-08T01:54:31;0.30;;;0.30;;
15496;SDS011;7850;52.204;5.942;2023-05-08T01:55:29;0.30;;;0.30;;
15496;SDS011;7850;52.204;5.942;2023-05-08T01:56:29;0.24;;;0.24;;
15496;SDS011;7850;52.204;5.942;2023-05-08T01:57:29;0.48;;;0.48;;
15496;SDS011;7850;52.204;5.942;2023-05-08T01:58:29;0.83;;;0.83;;
15496;SDS011;7850;52.204;5.942;2023-05-08T01:59:29;0.39;;;0.39;;
15496;SDS011;7850;52.204;5.942;2023-05-08T02:00:29;0.30;;;0.30;;
15496;SDS011;7850;52.204;5.942;2023-05-08T02:01:29;0.33;;;0.33;;
15496;SDS011;7850;52.204;5.942;2023-05-08T02:02:29;0.78;;;0.78;;
15496;SDS011;7850;52.204;5.942;2023-05-08T02:03:29;0.73;;;0.73;;
15496;SDS011;7850;52.204;5.942;2023-05-08T02:04:29;0.61;;;0.61;;
15496;SDS011;7850;52.204;5.942;2023-05-08T02:05:29;0.29;;;0.29;;
15496;SDS011;7850;52.204;5.942;2023-05-08T02:06:29;0.39;;;0.39;;
15496;SDS011;7850;52.204;5.942;2023-05-08T02:07:29;0.68;;;0.68;;
15496;SDS011;7850;52.204;5.942;2023-05-08T02:08:30;0.40;;;0.40;;
15496;SDS011;7850;52.204;5.942;2023-05-08T02:09:30;0.40;;;0.40;;
15496;SDS011;7850;52.204;5.942;2023-05-08T02:10:30;0.36;;;0.36;;
15496;SDS011;7850;52.204;5.942;2023-05-08T02:11:30;0.70;;;0.70;;
15496;SDS011;7850;52.204;5.942;2023-05-08T02:12:30;0.50;;;0.50;;
15496;SDS011;7850;52.204;5.942;2023-05-08T02:13:30;0.44;;;0.44;;
15496;SDS011;7850;52.204;5.942;2023-05-08T02:14:30;0.58;;;0.58;;
15496;SDS011;7850;52.204;5.942;2023-05-08T02:15:30;0.60;;;0.60;;
15496;SDS011;7850;52.204;5.942;2023-05-08T02:16:30;0.40;;;0.40;;
15496;SDS011;7850;52.204;5.942;2023-05-08T02:17:30;0.43;;;0.43;;
15496;SDS011;7850;52.204;5.942;2023-05-08T02:18:30;0.54;;;0.54;;
15496;SDS011;7850;52.204;5.942;2023-05-08T02:19:30;0.57;;;0.57;;
15496;SDS011;7850;52.204;5.942;2023-05-08T02:20:30;0.42;;;0.42;;
15496;SDS011;7850;52.204;5.942;2023-05-08T02:21:30;0.40;;;0.40;;
15496;SDS011;7850;52.204;5.942;2023-05-08T02:22:31;0.30;;;0.30;;
15496;SDS011;7850;52.204;5.942;2023-05-08T02:23:31;0.30;;;0.30;;
15496;SDS011;7850;52.204;5.942;2023-05-08T02:24:31;0.33;;;0.33;;
15496;SDS011;7850;52.204;5.942;2023-05-08T02:25:31;0.30;;;0.30;;
15496;SDS011;7850;52.204;5.942;2023-05-08T02:26:31;0.30;;;0.30;;
15496;SDS011;7850;52.204;5.942;2023-05-08T02:27:31;0.30;;;0.30;;
15496;SDS011;7850;52.204;5.942;2023-05-08T02:28:31;0.55;;;0.55;;
15496;SDS011;7850;52.204;5.942;2023-05-08T02:29:31;0.64;;;0.64;;
15496;SDS011;7850;52.204;5.942;2023-05-08T02:30:31;0.50;;;0.50;;
15496;SDS011;7850;52.204;5.942;2023-05-08T02:31:31;0.44;;;0.44;;
15496;SDS011;7850;52.204;5.942;2023-05-08T02:32:31;0.53;;;0.53;;
15496;SDS011;7850;52.204;5.942;2023-05-08T02:33:31;0.41;;;0.41;;
15496;SDS011;7850;52.204;5.942;2023-05-08T02:34:31;0.63;;;0.63;;
15496;SDS011;7850;52.204;5.942;2023-05-08T02:35:31;0.90;;;0.90;;
15496;SDS011;7850;52.204;5.942;2023-05-08T02:36:31;0.42;;;0.42;;
15496;SDS011;7850;52.204;5.942;2023-05-08T02:37:31;0.40;;;0.40;;
15496;SDS011;7850;52.204;5.942;2023-05-08T02:38:31;0.50;;;0.50;;
15496;SDS011;7850;52.204;5.942;2023-05-08T02:39:31;0.60;;;0.60;;
15496;SDS011;7850;52.204;5.942;2023-05-08T02:40:31;0.44;;;0.44;;
15496;SDS011;7850;52.204;5.942;2023-05-08T02:41:31;0.99;;;0.99;;
15496;SDS011;7850;52.204;5.942;2023-05-08T02:42:31;0.31;;;0.31;;
15496;SDS011;7850;52.204;5.942;2023-05-08T02:43:31;0.40;;;0.40;;
15496;SDS011;7850;52.204;5.942;2023-05-08T02:44:32;0.40;;;0.40;;
15496;SDS011;7850;52.204;5.942;2023-05-08T02:45:34;0.79;;;0.79;;
15496;SDS011;7850;52.204;5.942;2023-05-08T02:46:34;0.70;;;0.70;;
15496;SDS011;7850;52.204;5.942;2023-05-08T02:47:33;0.50;;;0.50;;
15496;SDS011;7850;52.204;5.942;2023-05-08T02:48:32;0.60;;;0.60;;
15496;SDS011;7850;52.204;5.942;2023-05-08T02:49:35;0.50;;;0.50;;
15496;SDS011;7850;52.204;5.942;2023-05-08T02:50:34;0.60;;;0.60;;
15496;SDS011;7850;52.204;5.942;2023-05-08T02:51:35;0.80;;;0.80;;
15496;SDS011;7850;52.204;5.942;2023-05-08T02:52:33;0.60;;;0.60;;
15496;SDS011;7850;52.204;5.942;2023-05-08T02:53:33;0.86;;;0.86;;
15496;SDS011;7850;52.204;5.942;2023-05-08T02:54:34;0.80;;;0.80;;
15496;SDS011;7850;52.204;5.942;2023-05-08T02:55:33;0.57;;;0.57;;
15496;SDS011;7850;52.204;5.942;2023-05-08T02:56:35;0.60;;;0.60;;
15496;SDS011;7850;52.204;5.942;2023-05-08T02:57:34;0.33;;;0.33;;
15496;SDS011;7850;52.204;5.942;2023-05-08T02:58:34;0.58;;;0.58;;
15496;SDS011;7850;52.204;5.942;2023-05-08T02:59:35;0.62;;;0.62;;
15496;SDS011;7850;52.204;5.942;2023-05-08T03:00:34;0.53;;;0.53;;
15496;SDS011;7850;52.204;5.942;2023-05-08T03:01:35;0.32;;;0.32;;
15496;SDS011;7850;52.204;5.942;2023-05-08T03:02:34;0.24;;;0.24;;
15496;SDS011;7850;52.204;5.942;2023-05-08T03:03:35;0.41;;;0.41;;
15496;SDS011;7850;52.204;5.942;2023-05-08T03:04:35;0.59;;;0.59;;
15496;SDS011;7850;52.204;5.942;2023-05-08T03:05:33;0.33;;;0.33;;
15496;SDS011;7850;52.204;5.942;2023-05-08T03:06:37;0.45;;;0.45;;
15496;SDS011;7850;52.204;5.942;2023-05-08T03:07:33;0.31;;;0.31;;
15496;SDS011;7850;52.204;5.942;2023-05-08T03:08:33;0.65;;;0.65;;
15496;SDS011;7850;52.204;5.942;2023-05-08T03:09:35;0.40;;;0.40;;
15496;SDS011;7850;52.204;5.942;2023-05-08T03:10:33;0.40;;;0.40;;
15496;SDS011;7850;52.204;5.942;2023-05-08T03:11:35;0.54;;;0.54;;
15496;SDS011;7850;52.204;5.942;2023-05-08T03:12:33;0.67;;;0.67;;
15496;SDS011;7850;52.204;5.942;2023-05-08T03:13:33;0.65;;;0.65;;
15496;SDS011;7850;52.204;5.942;2023-05-08T03:14:34;0.43;;;0.43;;
15496;SDS011;7850;52.204;5.942;2023-05-08T03:15:34;0.58;;;0.58;;
15496;SDS011;7850;52.204;5.942;2023-05-08T03:16:33;0.42;;;0.42;;
15496;SDS011;7850;52.204;5.942;2023-05-08T03:17:34;0.40;;;0.40;;
15496;SDS011;7850;52.204;5.942;2023-05-08T03:18:34;0.36;;;0.36;;
15496;SDS011;7850;52.204;5.942;2023-05-08T03:19:35;0.38;;;0.38;;
15496;SDS011;7850;52.204;5.942;2023-05-08T03:20:36;0.78;;;0.78;;
15496;SDS011;7850;52.204;5.942;2023-05-08T03:21:34;8.79;;;8.40;;
15496;SDS011;7850;52.204;5.942;2023-05-08T03:22:34;7.53;;;7.23;;
15496;SDS011;7850;52.204;5.942;2023-05-08T03:23:34;9.33;;;8.93;;
15496;SDS011;7850;52.204;5.942;2023-05-08T03:24:34;4.61;;;4.41;;
15496;SDS011;7850;52.204;5.942;2023-05-08T03:25:34;7.54;;;7.24;;
15496;SDS011;7850;52.204;5.942;2023-05-08T03:26:34;2.34;;;2.29;;
15496;SDS011;7850;52.204;5.942;2023-05-08T03:27:34;3.68;;;3.56;;
15496;SDS011;7850;52.204;5.942;2023-05-08T03:28:34;1.92;;;1.88;;
15496;SDS011;7850;52.204;5.942;2023-05-08T03:29:34;1.65;;;1.65;;
15496;SDS011;7850;52.204;5.942;2023-05-08T03:30:35;1.02;;;1.02;;
15496;SDS011;7850;52.204;5.942;2023-05-08T03:31:34;0.30;;;0.30;;
15496;SDS011;7850;52.204;5.942;2023-05-08T03:32:34;0.47;;;0.47;;
15496;SDS011;7850;52.204;5.942;2023-05-08T03:33:35;0.30;;;0.30;;
15496;SDS011;7850;52.204;5.942;2023-05-08T03:34:34;0.31;;;0.31;;
15496;SDS011;7850;52.204;5.942;2023-05-08T03:35:35;0.50;;;0.50;;
15496;SDS011;7850;52.204;5.942;2023-05-08T03:36:34;0.50;;;0.50;;
15496;SDS011;7850;52.204;5.942;2023-05-08T03:37:35;0.63;;;0.63;;
15496;SDS011;7850;52.204;5.942;2023-05-08T03:38:35;0.42;;;0.42;;
15496;SDS011;7850;52.204;5.942;2023-05-08T03:39:35;0.41;;;0.41;;
15496;SDS011;7850;52.204;5.942;2023-05-08T03:40:35;0.48;;;0.48;;
15496;SDS011;7850;52.204;5.942;2023-05-08T03:41:35;0.74;;;0.74;;
15496;SDS011;7850;52.204;5.942;2023-05-08T03:42:35;0.44;;;0.44;;
15496;SDS011;7850;52.204;5.942;2023-05-08T03:43:35;0.67;;;0.67;;
15496;SDS011;7850;52.204;5.942;2023-05-08T03:44:35;0.50;;;0.50;;
15496;SDS011;7850;52.204;5.942;2023-05-08T03:45:35;0.48;;;0.48;;
15496;SDS011;7850;52.204;5.942;2023-05-08T03:46:35;0.40;;;0.40;;
15496;SDS011;7850;52.204;5.942;2023-05-08T03:47:35;0.46;;;0.46;;
15496;SDS011;7850;52.204;5.942;2023-05-08T03:48:35;0.40;;;0.40;;
15496;SDS011;7850;52.204;5.942;2023-05-08T03:49:35;0.40;;;0.40;;
15496;SDS011;7850;52.204;5.942;2023-05-08T03:50:36;0.30;;;0.30;;
15496;SDS011;7850;52.204;5.942;2023-05-08T03:51:36;0.21;;;0.21;;
15496;SDS011;7850;52.204;5.942;2023-05-08T03:52:36;0.30;;;0.30;;
15496;SDS011;7850;52.204;5.942;2023-05-08T03:53:36;0.20;;;0.20;;
15496;SDS011;7850;52.204;5.942;2023-05-08T03:54:36;0.20;;;0.20;;
15496;SDS011;7850;52.204;5.942;2023-05-08T03:55:36;0.22;;;0.22;;
15496;SDS011;7850;52.204;5.942;2023-05-08T03:56:36;1.73;;;1.73;;
15496;SDS011;7850;52.204;5.942;2023-05-08T03:57:38;3.94;;;3.82;;
15496;SDS011;7850;52.204;5.942;2023-05-08T03:58:37;4.24;;;4.09;;
15496;SDS011;7850;52.204;5.942;2023-05-08T03:59:37;4.73;;;4.54;;
15496;SDS011;7850;52.204;5.942;2023-05-08T04:00:40;4.86;;;4.66;;
15496;SDS011;7850;52.204;5.942;2023-05-08T04:01:38;4.34;;;4.17;;
15496;SDS011;7850;52.204;5.942;2023-05-08T04:02:37;20.25;;;19.30;;
15496;SDS011;7850;52.204;5.942;2023-05-08T04:03:40;11.39;;;10.89;;
15496;SDS011;7850;52.204;5.942;2023-05-08T04:04:37;10.57;;;10.11;;
15496;SDS011;7850;52.204;5.942;2023-05-08T04:05:37;9.29;;;8.89;;
15496;SDS011;7850;52.204;5.942;2023-05-08T04:06:39;6.02;;;5.78;;
15496;SDS011;7850;52.204;5.942;2023-05-08T04:07:37;6.13;;;5.86;;
15496;SDS011;7850;52.204;5.942;2023-05-08T04:08:38;8.94;;;8.55;;
15496;SDS011;7850;52.204;5.942;2023-05-08T04:09:37;17.46;;;16.67;;
15496;SDS011;7850;52.204;5.942;2023-05-08T04:10:41;16.51;;;15.78;;
15496;SDS011;7850;52.204;5.942;2023-05-08T04:11:40;22.96;;;21.90;;
15496;SDS011;7850;52.204;5.942;2023-05-08T04:12:38;13.88;;;13.27;;
15496;SDS011;7850;52.204;5.942;2023-05-08T04:13:38;19.29;;;18.40;;
15496;SDS011;7850;52.204;5.942;2023-05-08T04:14:41;14.62;;;13.96;;
15496;SDS011;7850;52.204;5.942;2023-05-08T04:15:37;16.14;;;15.42;;
15496;SDS011;7850;52.204;5.942;2023-05-08T04:16:38;22.22;;;21.19;;
15496;SDS011;7850;52.204;5.942;2023-05-08T04:17:38;15.44;;;14.74;;
15496;SDS011;7850;52.204;5.942;2023-05-08T04:18:38;18.40;;;17.55;;
15496;SDS011;7850;52.204;5.942;2023-05-08T04:19:38;20.18;;;19.27;;
15496;SDS011;7850;52.204;5.942;2023-05-08T04:20:38;19.79;;;18.87;;
15496;SDS011;7850;52.204;5.942;2023-05-08T04:21:38;20.67;;;19.72;;
15496;SDS011;7850;52.204;5.942;2023-05-08T04:22:38;18.72;;;17.86;;
15496;SDS011;7850;52.204;5.942;2023-05-08T04:23:38;19.87;;;18.96;;
15496;SDS011;7850;52.204;5.942;2023-05-08T04:24:39;20.50;;;19.55;;
15496;SDS011;7850;52.204;5.942;2023-05-08T04:25:37;23.74;;;22.63;;
15496;SDS011;7850;52.204;5.942;2023-05-08T04:26:37;25.14;;;23.97;;
15496;SDS011;7850;52.204;5.942;2023-05-08T04:27:38;22.30;;;21.26;;
15496;SDS011;7850;52.204;5.942;2023-05-08T04:28:38;25.61;;;24.42;;
15496;SDS011;7850;52.204;5.942;2023-05-08T04:29:38;25.57;;;24.36;;
15496;SDS011;7850;52.204;5.942;2023-05-08T04:30:38;27.20;;;25.92;;
15496;SDS011;7850;52.204;5.942;2023-05-08T04:31:38;21.76;;;20.75;;
15496;SDS011;7850;52.204;5.942;2023-05-08T04:32:38;9.99;;;9.55;;
15496;SDS011;7850;52.204;5.942;2023-05-08T04:33:38;9.02;;;8.66;;
15496;SDS011;7850;52.204;5.942;2023-05-08T04:34:38;10.43;;;9.98;;
15496;SDS011;7850;52.204;5.942;2023-05-08T04:35:38;8.18;;;7.84;;
15496;SDS011;7850;52.204;5.942;2023-05-08T04:36:38;19.54;;;18.64;;
15496;SDS011;7850;52.204;5.942;2023-05-08T04:37:39;25.24;;;24.05;;
15496;SDS011;7850;52.204;5.942;2023-05-08T04:38:38;21.02;;;20.06;;
15496;SDS011;7850;52.204;5.942;2023-05-08T04:39:38;26.06;;;24.85;;
15496;SDS011;7850;52.204;5.942;2023-05-08T04:40:38;17.99;;;17.16;;
15496;SDS011;7850;52.204;5.942;2023-05-08T04:41:38;20.89;;;19.93;;
15496;SDS011;7850;52.204;5.942;2023-05-08T04:42:38;23.24;;;22.16;;
15496;SDS011;7850;52.204;5.942;2023-05-08T04:43:39;25.54;;;24.34;;
15496;SDS011;7850;52.204;5.942;2023-05-08T04:44:39;26.66;;;25.41;;
15496;SDS011;7850;52.204;5.942;2023-05-08T04:45:39;23.42;;;22.33;;
15496;SDS011;7850;52.204;5.942;2023-05-08T04:46:39;25.08;;;23.92;;
15496;SDS011;7850;52.204;5.942;2023-05-08T04:47:39;18.20;;;17.35;;
15496;SDS011;7850;52.204;5.942;2023-05-08T04:48:39;18.81;;;17.94;;
15496;SDS011;7850;52.204;5.942;2023-05-08T04:49:39;14.43;;;13.79;;
15496;SDS011;7850;52.204;5.942;2023-05-08T04:50:39;28.28;;;26.94;;
15496;SDS011;7850;52.204;5.942;2023-05-08T04:51:39;21.24;;;20.25;;
15496;SDS011;7850;52.204;5.942;2023-05-08T04:52:39;28.28;;;26.94;;
15496;SDS011;7850;52.204;5.942;2023-05-08T04:53:39;8.66;;;8.28;;
15496;SDS011;7850;52.204;5.942;2023-05-08T04:54:39;5.32;;;5.12;;
15496;SDS011;7850;52.204;5.942;2023-05-08T04:55:39;16.44;;;15.69;;
15496;SDS011;7850;52.204;5.942;2023-05-08T04:56:39;23.29;;;22.19;;
15496;SDS011;7850;52.204;5.942;2023-05-08T04:57:39;19.21;;;18.31;;
15496;SDS011;7850;52.204;5.942;2023-05-08T04:58:39;6.05;;;5.80;;
15496;SDS011;7850;52.204;5.942;2023-05-08T04:59:40;6.22;;;5.98;;
15496;SDS011;7850;52.204;5.942;2023-05-08T05:00:40;6.38;;;6.13;;
15496;SDS011;7850;52.204;5.942;2023-05-08T05:01:40;6.71;;;6.44;;
15496;SDS011;7850;52.204;5.942;2023-05-08T05:02:40;9.87;;;9.44;;
15496;SDS011;7850;52.204;5.942;2023-05-08T05:03:40;9.53;;;9.13;;
15496;SDS011;7850;52.204;5.942;2023-05-08T05:04:40;8.18;;;7.83;;
15496;SDS011;7850;52.204;5.942;2023-05-08T05:05:40;5.25;;;5.03;;
15496;SDS011;7850;52.204;5.942;2023-05-08T05:06:40;1.01;;;1.01;;
15496;SDS011;7850;52.204;5.942;2023-05-08T05:07:40;1.01;;;1.01;;
15496;SDS011;7850;52.204;5.942;2023-05-08T05:08:40;2.88;;;2.78;;
15496;SDS011;7850;52.204;5.942;2023-05-08T05:09:40;7.70;;;7.38;;
15496;SDS011;7850;52.204;5.942;2023-05-08T05:10:40;5.42;;;5.21;;
15496;SDS011;7850;52.204;5.942;2023-05-08T05:11:40;2.74;;;2.66;;
15496;SDS011;7850;52.204;5.942;2023-05-08T05:12:40;3.95;;;3.80;;
15496;SDS011;7850;52.204;5.942;2023-05-08T05:13:41;4.62;;;4.44;;
15496;SDS011;7850;52.204;5.942;2023-05-08T05:14:41;4.55;;;4.37;;
15496;SDS011;7850;52.204;5.942;2023-05-08T05:15:41;5.63;;;5.43;;
15496;SDS011;7850;52.204;5.942;2023-05-08T05:16:41;8.59;;;8.24;;
15496;SDS011;7850;52.204;5.942;2023-05-08T05:17:41;9.95;;;9.52;;
15496;SDS011;7850;52.204;5.942;2023-05-08T05:18:41;8.94;;;8.56;;
15496;SDS011;7850;52.204;5.942;2023-05-08T05:19:41;11.42;;;10.91;;
15496;SDS011;7850;52.204;5.942;2023-05-08T05:20:41;7.35;;;7.04;;
15496;SDS011;7850;52.204;5.942;2023-05-08T05:21:41;5.29;;;5.08;;
15496;SDS011;7850;52.204;5.942;2023-05-08T05:22:41;15.22;;;14.53;;
15496;SDS011;7850;52.204;5.942;2023-05-08T05:23:41;10.31;;;9.85;;
15496;SDS011;7850;52.204;5.942;2023-05-08T05:24:41;9.31;;;8.90;;
15496;SDS011;7850;52.204;5.942;2023-05-08T05:25:41;9.74;;;9.31;;
15496;SDS011;7850;52.204;5.942;2023-05-08T05:26:41;13.65;;;13.03;;
15496;SDS011;7850;52.204;5.942;2023-05-08T05:27:41;19.79;;;18.87;;
15496;SDS011;7850;52.204;5.942;2023-05-08T05:28:41;6.99;;;6.69;;
15496;SDS011;7850;52.204;5.942;2023-05-08T05:29:42;14.27;;;12.80;;
15496;SDS011;7850;52.204;5.942;2023-05-08T05:30:42;5.21;;;5.01;;
15496;SDS011;7850;52.204;5.942;2023-05-08T05:31:42;4.15;;;4.01;;
15496;SDS011;7850;52.204;5.942;2023-05-08T05:32:42;6.99;;;6.69;;
15496;SDS011;7850;52.204;5.942;2023-05-08T05:33:42;1.42;;;1.42;;
15496;SDS011;7850;52.204;5.942;2023-05-08T05:34:42;1.50;;;1.50;;
15496;SDS011;7850;52.204;5.942;2023-05-08T05:35:42;15.80;;;15.09;;
15496;SDS011;7850;52.204;5.942;2023-05-08T05:36:42;15.60;;;14.89;;
15496;SDS011;7850;52.204;5.942;2023-05-08T05:37:42;15.60;;;14.88;;
15496;SDS011;7850;52.204;5.942;2023-05-08T05:38:42;10.57;;;10.11;;
15496;SDS011;7850;52.204;5.942;2023-05-08T05:39:42;10.14;;;9.69;;
15496;SDS011;7850;52.204;5.942;2023-05-08T05:40:42;17.33;;;16.53;;
15496;SDS011;7850;52.204;5.942;2023-05-08T05:41:42;17.89;;;17.07;;
15496;SDS011;7850;52.204;5.942;2023-05-08T05:42:47;20.94;;;19.97;;
15496;SDS011;7850;52.204;5.942;2023-05-08T05:43:42;7.06;;;6.77;;
15496;SDS011;7850;52.204;5.942;2023-05-08T05:44:43;4.58;;;4.38;;
15496;SDS011;7850;52.204;5.942;2023-05-08T05:45:43;13.97;;;13.33;;
15496;SDS011;7850;52.204;5.942;2023-05-08T05:46:43;16.23;;;15.47;;
15496;SDS011;7850;52.204;5.942;2023-05-08T05:47:43;15.29;;;14.59;;
15496;SDS011;7850;52.204;5.942;2023-05-08T05:48:43;12.74;;;12.18;;
15496;SDS011;7850;52.204;5.942;2023-05-08T05:49:43;10.66;;;10.20;;
15496;SDS011;7850;52.204;5.942;2023-05-08T05:50:43;15.61;;;14.89;;
15496;SDS011;7850;52.204;5.942;2023-05-08T05:51:43;10.65;;;10.18;;
15496;SDS011;7850;52.204;5.942;2023-05-08T05:52:43;10.69;;;10.21;;
15496;SDS011;7850;52.204;5.942;2023-05-08T05:53:43;6.91;;;6.62;;
15496;SDS011;7850;52.204;5.942;2023-05-08T05:54:43;5.93;;;5.68;;
15496;SDS011;7850;52.204;5.942;2023-05-08T05:55:43;8.52;;;8.16;;
15496;SDS011;7850;52.204;5.942;2023-05-08T05:56:43;14.09;;;13.47;;
15496;SDS011;7850;52.204;5.942;2023-05-08T05:57:43;17.69;;;16.89;;
15496;SDS011;7850;52.204;5.942;2023-05-08T05:58:43;15.12;;;14.44;;
15496;SDS011;7850;52.204;5.942;2023-05-08T05:59:44;5.28;;;5.06;;
15496;SDS011;7850;52.204;5.942;2023-05-08T06:00:44;4.45;;;4.28;;
15496;SDS011;7850;52.204;5.942;2023-05-08T06:01:44;4.09;;;3.90;;
15496;SDS011;7850;52.204;5.942;2023-05-08T06:02:44;4.14;;;4.00;;
15496;SDS011;7850;52.204;5.942;2023-05-08T06:03:44;3.51;;;3.39;;